Time;durP1;ratioP1;P1;durP2;ratioP2;P2;SDS_P1;SDS_P2;PMS_P1;PMS_P2;Temp;Humidity;BMP_temperature;BMP_pressure;BME280_temperature;BME280_humidity;BME280_pressure;Samples;Min_cycle;Max_cycle;Signal;HPM_P1;HPM_P2
2022/11/12 00:00:22;;;;;;;53.22;38.60;;;;;;;9.24;100.00;102164.19;4931798;29;20035;-77
2022/11/12 00:02:48;;;;;;;48.90;37.67;;;;;;;9.09;100.00;102142.72;4948993;29;20126;-77
2022/11/12 00:05:13;;;;;;;48.25;35.75;;;;;;;9.61;100.00;102235.28;4947987;29;20107;-78
2022/11/12 00:07:39;;;;;;;58.10;38.60;;;;;;;9.86;100.00;102263.22;4949125;29;20079;-75
2022/11/12 00:10:05;;;;;;;54.33;39.33;;;;;;;9.27;100.00;102156.44;4949192;29;20049;-75
2022/11/12 00:12:31;;;;;;;54.22;36.05;;;;;;;9.13;100.00;102130.63;4949028;29;20046;-75
2022/11/12 00:14:56;;;;;;;57.22;37.95;;;;;;;8.95;100.00;102104.72;4949621;29;20035;-76
2022/11/12 00:17:22;;;;;;;57.80;38.58;;;;;;;9.70;100.00;102223.38;4947588;29;20043;-74
2022/11/12 00:19:48;;;;;;;51.75;38.50;;;;;;;9.82;100.00;102262.19;4947946;29;20043;-75
2022/11/12 00:22:13;;;;;;;53.30;38.28;;;;;;;9.65;100.00;102232.81;4948539;28;20133;-75
2022/11/12 00:24:39;;;;;;;52.22;36.38;;;;;;;9.05;100.00;102114.66;4948696;28;20042;-76
2022/11/12 00:27:04;;;;;;;49.22;37.75;;;;;;;9.12;100.00;102124.50;4936275;29;20031;-75
2022/11/12 00:29:29;;;;;;;55.35;37.33;;;;;;;9.88;100.00;102270.28;4953159;28;20043;-76
2022/11/12 00:31:55;;;;;;;50.67;38.10;;;;;;;9.05;100.00;102118.16;4967999;28;20144;-77
2022/11/12 00:34:20;;;;;;;47.13;36.10;;;;;;;9.12;100.00;102124.50;4950041;28;20082;-76
2022/11/12 00:36:47;;;;;;;53.53;37.58;;;;;;;9.17;100.00;102141.25;4966730;28;20058;-75
2022/11/12 00:39:15;;;;;;;53.55;40.85;;;;;;;8.85;100.00;102087.81;4968708;28;20506;-75
2022/11/12 00:41:41;;;;;;;43.55;36.85;;;;;;;9.08;100.00;102115.66;4965565;28;20061;-75
2022/11/12 00:44:06;;;;;;;48.00;36.80;;;;;;;9.76;100.00;102234.88;4966095;28;20051;-75
2022/11/12 00:46:31;;;;;;;52.72;38.15;;;;;;;9.06;100.00;102117.34;4966185;28;20386;-77
2022/11/12 00:48:57;;;;;;;51.90;36.60;;;;;;;9.82;100.00;102248.22;4967610;28;20066;-76
2022/11/12 00:51:22;;;;;;;47.60;36.85;;;;;;;9.25;100.00;102146.75;4965365;28;20038;-77
2022/11/12 00:53:49;;;;;;;49.33;37.38;;;;;;;9.45;100.00;102176.22;4967520;28;20058;-76
2022/11/12 00:56:15;;;;;;;47.17;36.80;;;;;;;9.64;100.00;102220.53;4969709;28;20125;-76
2022/11/12 00:58:41;;;;;;;57.03;35.78;;;;;;;9.08;100.00;102110.41;4971492;28;20046;-76
2022/11/12 01:01:13;;;;;;;48.70;33.92;;;;;;;9.83;100.00;102266.63;4971669;28;20372;-76
2022/11/12 01:03:39;;;;;;;46.45;37.55;;;;;;;9.46;100.00;102206.84;4971346;28;20035;-75
2022/11/12 01:06:11;;;;;;;39.05;33.33;;;;;;;9.53;100.00;102211.44;4970843;28;20039;-76
2022/11/12 01:08:37;;;;;;;45.13;35.05;;;;;;;9.15;100.00;102153.38;4971421;28;20054;-75
2022/11/12 01:11:13;;;;;;;49.67;36.60;;;;;;;9.74;100.00;102247.97;4970987;28;20043;-75
2022/11/12 01:13:41;;;;;;;49.80;35.33;;;;;;;9.66;100.00;102225.84;4970753;28;20043;-75
2022/11/12 01:16:16;;;;;;;46.40;34.95;;;;;;;9.78;100.00;102241.97;4983461;28;20058;-75
2022/11/12 01:18:42;;;;;;;45.63;33.55;;;;;;;9.75;100.00;102220.00;4987025;28;20147;-78
2022/11/12 01:21:09;;;;;;;48.90;35.00;;;;;;;9.65;100.00;102206.59;4964223;28;20033;-76
2022/11/12 01:23:36;;;;;;;48.30;34.55;;;;;;;8.93;100.00;102086.34;4957240;28;20142;-75
2022/11/12 01:26:14;;;;;;;40.40;32.38;;;;;;;9.72;100.00;102239.16;4970904;28;20058;-75
2022/11/12 01:28:41;;;;;;;56.17;34.40;;;;;;;9.58;100.00;102207.25;4971294;28;20896;-74
2022/11/12 01:31:20;;;;;;;43.85;34.08;;;;;;;9.71;100.00;102247.84;4970763;28;20062;-74
2022/11/12 01:33:47;;;;;;;52.30;37.50;;;;;;;8.88;100.00;102094.03;4971065;28;20291;-74
2022/11/12 01:36:14;;;;;;;44.88;33.72;;;;;;;9.34;100.00;102177.59;4968763;28;20523;-75
2022/11/12 01:38:41;;;;;;;46.45;33.53;;;;;;;9.17;100.00;102161.31;4971119;28;20074;-73
2022/11/12 01:41:08;;;;;;;50.20;37.67;;;;;;;9.46;100.00;102222.56;4970798;28;20057;-75
2022/11/12 01:43:34;;;;;;;46.70;32.83;;;;;;;9.58;100.00;102232.56;4968562;28;20137;-76
2022/11/12 01:46:03;;;;;;;49.20;35.70;;;;;;;9.34;100.00;102233.53;4961965;28;20051;-76
2022/11/12 01:48:36;;;;;;;53.45;37.55;;;;;;;8.75;100.00;102099.66;4970822;28;20035;-75
2022/11/12 01:51:04;;;;;;;43.90;34.85;;;;;;;9.60;100.00;102242.25;4970911;28;20038;-75
2022/11/12 01:53:32;;;;;;;52.47;36.58;;;;;;;9.57;100.00;102251.72;4970729;28;20061;-75
2022/11/12 01:55:59;;;;;;;44.03;34.38;;;;;;;9.11;100.00;102209.16;4970286;28;20039;-76
2022/11/12 01:58:28;;;;;;;49.67;34.00;;;;;;;9.39;100.00;102234.56;4967694;28;20777;-75
2022/11/12 02:00:55;;;;;;;64.10;35.72;;;;;;;9.46;100.00;102235.66;4976352;28;20051;-75
2022/11/12 02:03:26;;;;;;;55.67;37.78;;;;;;;9.42;100.00;102229.41;4970631;28;20487;-75
2022/11/12 02:06:13;;;;;;;47.85;33.85;;;;;;;9.24;100.00;102239.25;4969682;28;20137;-75
2022/11/12 02:08:39;;;;;;;47.83;36.42;;;;;;;9.27;100.00;102200.97;4970086;28;20117;-75
2022/11/12 02:11:17;;;;;;;49.10;35.60;;;;;;;8.27;100.00;102110.16;4970136;28;20051;-76
2022/11/12 02:13:56;;;;;;;49.13;36.35;;;;;;;9.09;100.00;102232.66;4969264;28;20081;-75
2022/11/12 02:16:25;;;;;;;45.25;35.42;;;;;;;9.07;100.00;102200.28;4956901;28;20058;-75
2022/11/12 02:18:51;;;;;;;53.08;37.38;;;;;;;8.46;100.00;102090.81;4969726;28;20137;-75
2022/11/12 02:21:18;;;;;;;45.45;33.83;;;;;;;9.28;100.00;102214.97;4965822;28;20466;-75
2022/11/12 02:23:44;;;;;;;48.50;37.67;;;;;;;9.24;100.00;102227.03;4969568;28;20050;-75
2022/11/12 02:26:09;;;;;;;47.90;34.65;;;;;;;8.37;100.00;102077.38;4969564;28;20084;-73
2022/11/12 02:28:35;;;;;;;51.47;35.97;;;;;;;8.03;100.00;102086.59;4969784;28;20062;-75
2022/11/12 02:31:00;;;;;;;47.08;34.08;;;;;;;8.31;100.00;102090.22;4968735;28;20054;-74
2022/11/12 02:33:26;;;;;;;46.05;33.55;;;;;;;8.69;100.00;102137.84;4969373;28;20051;-74
2022/11/12 02:35:51;;;;;;;40.83;32.10;;;;;;;9.27;100.00;102232.41;4970163;28;20051;-74
2022/11/12 02:38:17;;;;;;;45.05;33.95;;;;;;;8.55;100.00;102113.81;4969714;28;20054;-75
2022/11/12 02:40:42;;;;;;;43.05;32.70;;;;;;;8.52;100.00;102113.66;4969522;28;20557;-74
2022/11/12 02:43:08;;;;;;;48.30;33.63;;;;;;;8.40;100.00;102090.56;4965322;28;20039;-74
2022/11/12 02:45:33;;;;;;;48.83;34.63;;;;;;;8.34;100.00;102100.81;4968544;28;20038;-74
2022/11/12 02:47:59;;;;;;;48.05;35.45;;;;;;;8.25;100.00;102090.88;4969652;28;20558;-74
2022/11/12 02:50:24;;;;;;;46.03;32.60;;;;;;;8.51;100.00;102130.22;4968999;28;20043;-74
2022/11/12 02:52:50;;;;;;;43.00;33.75;;;;;;;9.00;100.00;102240.16;4969243;28;20047;-76
2022/11/12 02:55:15;;;;;;;46.25;35.53;;;;;;;9.08;100.00;102240.44;4961649;28;20072;-75
2022/11/12 02:57:41;;;;;;;46.15;32.50;;;;;;;8.88;100.00;102209.22;4968788;28;20037;-74
2022/11/12 03:00:10;;;;;;;39.92;32.42;;;;;;;9.11;100.00;102244.88;4967190;28;20066;-73
2022/11/12 03:02:41;;;;;;;49.00;32.88;;;;;;;8.19;100.00;102107.25;4969042;28;20054;-76
2022/11/12 03:05:10;;;;;;;42.92;31.95;;;;;;;8.90;100.00;102252.88;4969227;28;20101;-74
2022/11/12 03:07:36;;;;;;;41.55;32.15;;;;;;;8.52;100.00;102186.94;4969448;28;20142;-74
2022/11/12 03:10:01;;;;;;;45.30;32.72;;;;;;;8.93;100.00;102250.38;4968644;28;20129;-75
2022/11/12 03:12:29;;;;;;;36.90;31.05;;;;;;;8.64;100.00;102203.97;4968477;28;20034;-75
2022/11/12 03:14:55;;;;;;;40.55;30.13;;;;;;;8.94;100.00;102247.78;4971547;28;20038;-75
2022/11/12 03:17:22;;;;;;;38.17;30.80;;;;;;;8.76;100.00;102227.09;4978717;28;20051;-74
2022/11/12 03:19:47;;;;;;;46.40;32.28;;;;;;;8.00;100.00;102104.75;4951477;28;20059;-74
2022/11/12 03:22:13;;;;;;;39.45;31.02;;;;;;;8.87;100.00;102235.31;4968380;28;20046;-74
2022/11/12 03:24:38;;;;;;;43.25;32.15;;;;;;;8.84;100.00;102240.44;4968699;28;20536;-74
2022/11/12 03:27:04;;;;;;;43.55;31.30;;;;;;;8.70;100.00;102208.53;4969704;28;20487;-73
2022/11/12 03:29:29;;;;;;;41.88;29.67;;;;;;;8.12;100.00;102138.31;4968867;28;21055;-74
2022/11/12 03:31:55;;;;;;;35.10;28.08;;;;;;;7.87;100.00;102100.81;4967615;28;20047;-74
2022/11/12 03:34:20;;;;;;;37.85;28.58;;;;;;;8.63;100.00;102258.88;4968268;28;20059;-74
2022/11/12 03:36:46;;;;;;;35.53;27.40;;;;;;;8.62;100.00;102259.72;4968263;28;20534;-74
2022/11/12 03:39:11;;;;;;;31.75;25.33;;;;;;;8.61;100.00;102264.03;4968840;28;20093;-73
2022/11/12 03:41:36;;;;;;;30.80;22.88;;;;;;;8.20;100.00;102268.53;4968336;28;20061;-74
2022/11/12 03:44:02;;;;;;;32.83;21.52;;;;;;;7.29;100.00;102122.00;4964549;28;20054;-75
2022/11/12 03:46:27;;;;;;;31.58;24.05;;;;;;;7.95;100.00;102263.16;4967201;28;20055;-75
2022/11/12 03:48:53;;;;;;;36.70;24.50;;;;;;;7.99;100.00;102265.94;4968324;28;20069;-74
2022/11/12 03:51:20;;;;;;;31.75;23.02;;;;;;;8.23;100.00;102270.38;4968369;28;20034;-74
2022/11/12 03:53:45;;;;;;;30.63;23.15;;;;;;;7.45;100.00;102121.81;4968538;28;20418;-73
2022/11/12 03:56:11;;;;;;;34.92;22.77;;;;;;;7.49;100.00;102175.03;4968038;28;20043;-76
2022/11/12 03:58:36;;;;;;;33.25;23.13;;;;;;;7.96;100.00;102265.84;4968503;28;20053;-73
2022/11/12 04:01:02;;;;;;;31.88;24.48;;;;;;;7.40;100.00;102123.34;4967314;28;20051;-75
2022/11/12 04:03:28;;;;;;;36.60;22.02;;;;;;;8.05;100.00;102262.69;4968014;28;20561;-75
2022/11/12 04:08:38;;;;;;;28.02;23.35;;;;;;;7.60;100.00;102207.72;4949066;29;20184;-73
2022/11/12 04:11:08;;;;;;;28.83;22.52;;;;;;;7.97;100.00;102285.03;4958101;28;20860;-73
2022/11/12 04:13:35;;;;;;;33.97;25.42;;;;;;;7.26;100.00;102161.03;4967580;28;20043;-74
2022/11/12 04:22:04;;;;;;;36.72;26.85;;;;;;;7.66;100.00;102269.81;4968325;28;20130;-75
2022/11/12 04:27:32;;;;;;;33.72;24.45;;;;;;;6.85;100.00;102126.25;4978546;28;20046;-75
2022/11/12 04:30:18;;;;;;;25.05;21.83;;;;;;;7.84;100.00;102270.53;4977561;28;20045;-75
2022/11/12 04:32:49;;;;;;;29.10;22.35;;;;;;;7.55;100.00;102288.50;4951284;28;20055;-75
2022/11/12 04:35:15;;;;;;;30.67;23.02;;;;;;;7.05;100.00;102159.31;4952826;29;20499;-75
2022/11/12 04:37:44;;;;;;;43.35;25.77;;;;;;;7.40;100.00;102280.94;4952043;29;20055;-74
2022/11/12 04:45:53;;;;;;;31.30;22.50;;;;;;;7.19;100.00;102233.00;4967868;28;20097;-74
2022/11/12 04:48:20;;;;;;;24.40;20.75;;;;;;;6.74;100.00;102188.38;4971622;28;20034;-75
2022/11/12 04:50:49;;;;;;;28.25;21.42;;;;;;;7.28;100.00;102275.19;4965095;28;20427;-75
2022/11/12 04:53:15;;;;;;;31.80;20.85;;;;;;;7.54;100.00;102275.41;4952103;29;20130;-76
2022/11/12 04:55:41;;;;;;;24.38;21.30;;;;;;;7.45;100.00;102259.34;4951874;29;20147;-74
2022/11/12 04:58:06;;;;;;;30.75;20.40;;;;;;;7.61;100.00;102290.50;4983045;28;20094;-75
2022/11/12 05:00:32;;;;;;;27.88;22.02;;;;;;;7.28;100.00;102267.34;4970221;28;20027;-75
2022/11/12 05:02:57;;;;;;;27.08;19.50;;;;;;;7.29;100.00;102282.16;4971594;28;20039;-75
2022/11/12 05:05:23;;;;;;;30.08;20.73;;;;;;;6.94;100.00;102226.69;4971241;28;20047;-75
2022/11/12 05:07:50;;;;;;;27.67;21.00;;;;;;;6.74;100.00;102160.59;4970890;28;20062;-75
2022/11/12 05:10:15;;;;;;;26.02;21.50;;;;;;;7.37;100.00;102283.41;4971060;28;20043;-74
2022/11/12 05:12:42;;;;;;;29.50;21.42;;;;;;;7.30;100.00;102272.63;4970481;28;20486;-77
2022/11/12 05:15:10;;;;;;;26.55;21.00;;;;;;;7.12;100.00;102262.28;4972476;28;20038;-75
2022/11/12 05:17:36;;;;;;;23.45;19.10;;;;;;;7.40;100.00;102278.31;4971060;28;20106;-75
2022/11/12 05:20:01;;;;;;;26.08;19.00;;;;;;;6.93;100.00;102175.34;4971017;28;20536;-76
2022/11/12 05:22:27;;;;;;;27.48;19.35;;;;;;;7.37;100.00;102280.81;4970538;28;20537;-76
2022/11/12 05:24:52;;;;;;;29.88;23.27;;;;;;;6.48;100.00;102125.53;4970721;28;20098;-76
2022/11/12 05:27:19;;;;;;;30.17;16.05;;;;;;;7.17;100.00;102269.47;4970929;28;20035;-76
2022/11/12 05:29:45;;;;;;;33.95;21.55;;;;;;;7.30;100.00;102299.59;4969059;28;20065;-75
2022/11/12 05:32:14;;;;;;;29.60;21.75;;;;;;;7.33;100.00;102299.75;4969353;28;20047;-75
2022/11/12 05:34:39;;;;;;;26.35;20.30;;;;;;;7.30;100.00;102310.06;4970478;28;20062;-74
2022/11/12 05:37:06;;;;;;;28.35;20.58;;;;;;;7.25;100.00;102303.75;4970533;28;20770;-75
2022/11/12 05:39:32;;;;;;;27.58;22.17;;;;;;;7.32;100.00;102329.28;4970080;28;20062;-75
2022/11/12 05:41:57;;;;;;;28.90;20.70;;;;;;;7.45;100.00;102311.56;4969706;28;20090;-74
2022/11/12 05:44:23;;;;;;;31.42;20.17;;;;;;;7.28;100.00;102301.28;4968277;28;20046;-74
2022/11/12 05:46:49;;;;;;;27.33;20.88;;;;;;;6.71;100.00;102177.81;4951906;28;20789;-74
2022/11/12 05:49:16;;;;;;;26.42;19.52;;;;;;;6.74;100.00;102183.16;4970348;28;20054;-75
2022/11/12 05:51:42;;;;;;;26.55;20.40;;;;;;;7.65;100.00;102333.31;4969978;28;20038;-75
2022/11/12 05:54:07;;;;;;;27.42;20.58;;;;;;;6.72;100.00;102177.03;4970953;28;20474;-74
2022/11/12 05:56:33;;;;;;;24.70;20.55;;;;;;;7.51;100.00;102333.59;4970097;28;20055;-74
2022/11/12 05:59:01;;;;;;;26.80;18.65;;;;;;;7.31;100.00;102343.19;4970002;28;20067;-76
2022/11/12 06:01:26;;;;;;;33.92;22.70;;;;;;;7.18;100.00;102351.28;4968998;28;20097;-75
2022/11/12 06:03:52;;;;;;;24.80;20.42;;;;;;;6.68;100.00;102225.53;4969765;28;20051;-74
2022/11/12 06:06:17;;;;;;;38.33;26.15;;;;;;;6.65;100.00;102214.97;4970420;28;20030;-74
2022/11/12 06:08:43;;;;;;;36.42;20.20;;;;;;;7.15;100.00;102291.13;4969970;28;20415;-74
2022/11/12 06:11:08;;;;;;;30.70;22.25;;;;;;;6.53;100.00;102199.66;4959452;28;20145;-74
2022/11/12 06:13:34;;;;;;;29.88;22.00;;;;;;;7.15;100.00;102317.22;4966890;28;20043;-75
2022/11/12 06:16:00;;;;;;;26.30;21.30;;;;;;;7.30;100.00;102351.84;4966047;28;20051;-75
2022/11/12 06:18:25;;;;;;;36.33;24.77;;;;;;;6.88;100.00;102235.97;4952750;28;20090;-76
2022/11/12 06:23:35;;;;;;;27.00;21.05;;;;;;;6.67;100.00;102217.63;4969213;28;20682;-75
2022/11/12 06:26:01;;;;;;;24.85;15.88;;;;;;;7.48;100.00;102350.88;4969225;28;20130;-74
2022/11/12 06:28:28;;;;;;;33.13;22.65;;;;;;;7.61;100.00;102363.66;4969008;28;20065;-74
2022/11/12 06:30:53;;;;;;;30.92;23.13;;;;;;;7.55;100.00;102350.31;4963247;28;20054;-74
2022/11/12 06:33:19;;;;;;;27.70;21.52;;;;;;;6.80;100.00;102219.09;4969470;28;20123;-74
2022/11/12 06:35:44;;;;;;;30.50;24.58;;;;;;;7.44;100.00;102326.34;4959316;28;20047;-75
2022/11/12 06:38:10;;;;;;;29.50;23.10;;;;;;;7.72;100.00;102370.22;4963668;28;20054;-75
2022/11/12 06:40:35;;;;;;;34.95;24.73;;;;;;;6.86;100.00;102230.69;4965545;28;20066;-75
2022/11/12 06:43:01;;;;;;;28.30;22.98;;;;;;;7.64;100.00;102368.13;4966929;28;20495;-75
2022/11/12 06:45:26;;;;;;;40.03;24.98;;;;;;;6.91;100.00;102228.31;4984109;28;20383;-75
2022/11/12 06:47:56;;;;;;;27.52;22.27;;;;;;;7.77;100.00;102380.88;4980135;28;20043;-76
2022/11/12 06:50:22;;;;;;;38.83;25.13;;;;;;;7.75;100.00;102378.22;4967861;28;20078;-76
2022/11/12 06:52:47;;;;;;;27.40;15.25;;;;;;;7.04;100.00;102251.47;4968338;28;20085;-74
2022/11/12 06:55:13;;;;;;;29.42;22.30;;;;;;;7.80;100.00;102379.31;4968645;28;20043;-74
2022/11/12 06:57:38;;;;;;;31.40;26.23;;;;;;;7.61;100.00;102348.88;4967958;28;20039;-74
2022/11/12 07:00:04;;;;;;;34.45;25.77;;;;;;;7.79;100.00;102380.09;4966615;28;20525;-76
2022/11/12 07:02:30;;;;;;;35.00;24.80;;;;;;;7.76;100.00;102352.97;4966859;28;20078;-76
2022/11/12 07:04:55;;;;;;;33.92;26.80;;;;;;;7.16;100.00;102248.50;4967528;28;20093;-74
2022/11/12 07:07:20;;;;;;;30.25;23.52;;;;;;;8.20;100.00;102383.59;4964277;28;20050;-75
2022/11/12 07:09:49;;;;;;;45.30;25.58;;;;;;;7.36;100.00;102255.50;4965619;28;20038;-74
2022/11/12 07:12:15;;;;;;;39.28;27.00;;;;;;;8.07;100.00;102355.13;4965949;28;20089;-75
2022/11/12 07:14:40;;;;;;;31.45;25.33;;;;;;;7.71;100.00;102284.84;4968159;28;20059;-76
2022/11/12 07:17:05;;;;;;;36.42;28.58;;;;;;;8.19;100.00;102365.22;4968376;28;20129;-74
2022/11/12 07:19:31;;;;;;;27.85;24.20;;;;;;;8.45;100.00;102374.16;4968314;28;20047;-76
2022/11/12 07:21:56;;;;;;;42.30;29.00;;;;;;;8.11;100.00;102319.56;4969762;28;20046;-75
2022/11/12 07:24:22;;;;;;;34.85;27.20;;;;;;;8.50;100.00;102396.19;4965549;28;20347;-76
2022/11/12 07:26:47;;;;;;;47.45;27.60;;;;;;;8.13;100.00;102279.59;4968395;28;20051;-74
2022/11/12 07:29:13;;;;;;;46.03;28.98;;;;;;;8.56;100.00;102340.59;4977342;28;20366;-76
2022/11/12 07:31:39;;;;;;;43.08;30.55;;;;;;;8.79;100.00;102370.28;4973978;28;20578;-75
2022/11/12 07:34:04;;;;;;;34.60;24.25;;;;;;;8.86;100.00;102369.69;4967502;28;20047;-76
2022/11/12 07:36:30;;;;;;;31.67;25.27;;;;;;;8.23;100.00;102254.69;4951489;28;20038;-76
2022/11/12 07:38:55;;;;;;;34.63;26.80;;;;;;;8.85;100.00;102358.31;4965823;28;20106;-75
2022/11/12 07:41:23;;;;;;;33.42;28.15;;;;;;;9.11;100.00;102381.06;4964582;28;20061;-75
2022/11/12 07:43:51;;;;;;;35.10;28.00;;;;;;;8.99;100.00;102340.53;4953290;28;20090;-74
2022/11/12 07:46:22;;;;;;;42.55;29.10;;;;;;;9.28;100.00;102361.66;4973577;28;20148;-75
2022/11/12 07:48:48;;;;;;;42.83;27.95;;;;;;;9.23;100.00;102363.22;4974911;28;20522;-74
2022/11/12 07:51:25;;;;;;;37.28;25.95;;;;;;;9.18;100.00;102372.63;4967969;28;20517;-76
2022/11/12 07:53:53;;;;;;;42.13;26.83;;;;;;;9.36;100.00;102383.78;4967685;28;20058;-76
2022/11/12 07:56:24;;;;;;;34.35;26.80;;;;;;;8.75;100.00;102280.25;4953006;28;20050;-76
2022/11/12 07:58:50;;;;;;;37.30;26.83;;;;;;;9.40;100.00;102384.78;4980505;28;20045;-75
2022/11/12 08:01:18;;;;;;;36.90;28.08;;;;;;;9.46;100.00;102385.03;4964720;28;20406;-76
2022/11/12 08:03:43;;;;;;;45.83;29.08;;;;;;;9.45;100.00;102376.25;4966453;28;20035;-75
2022/11/12 08:06:09;;;;;;;35.80;25.40;;;;;;;9.46;100.00;102364.06;4958617;28;20476;-77
2022/11/12 08:08:35;;;;;;;35.97;28.73;;;;;;;8.80;100.00;102276.13;4948197;28;20173;-76
2022/11/12 08:11:00;;;;;;;34.58;25.90;;;;;;;9.36;100.00;102357.56;4965859;28;20581;-77
2022/11/12 08:13:25;;;;;;;35.50;25.35;;;;;;;8.85;100.00;102245.75;4973222;28;20078;-75
2022/11/12 08:15:51;;;;;;;41.88;25.17;;;;;;;9.76;100.00;102379.97;4957996;28;20578;-75
2022/11/12 08:18:17;;;;;;;45.05;30.20;;;;;;;9.17;100.00;102277.44;4968535;28;20030;-76
2022/11/12 08:20:43;;;;;;;36.67;29.10;;;;;;;9.81;100.00;102391.53;4961308;28;20051;-75
2022/11/12 08:23:09;;;;;;;39.65;27.10;;;;;;;9.16;100.00;102259.06;4977641;28;20046;-73
2022/11/12 08:25:35;;;;;;;38.47;28.77;;;;;;;9.93;100.00;102402.44;4969080;28;20406;-73
2022/11/12 08:28:01;;;;;;;38.88;26.42;;;;;;;9.72;99.39;102365.88;4985620;28;20061;-74
2022/11/12 08:30:28;;;;;;;47.75;28.55;;;;;;;9.34;99.71;102290.25;4970239;28;20119;-76
2022/11/12 08:33:04;;;;;;;38.20;28.95;;;;;;;10.02;98.86;102369.47;4967987;28;20065;-76
2022/11/12 08:35:30;;;;;;;34.83;28.42;;;;;;;10.10;98.78;102389.88;4966440;28;20251;-75
2022/11/12 08:38:00;;;;;;;41.28;26.35;;;;;;;10.31;98.31;102396.72;4949764;28;20058;-74
2022/11/12 08:40:27;;;;;;;35.30;26.63;;;;;;;10.15;96.85;102396.19;4965576;28;20580;-74
2022/11/12 08:43:03;;;;;;;33.45;25.02;;;;;;;10.23;97.11;102393.84;4944824;28;20871;-74
2022/11/12 08:45:30;;;;;;;36.83;26.20;;;;;;;9.73;96.44;102278.50;4931054;28;20360;-76
2022/11/12 08:48:04;;;;;;;35.95;26.17;;;;;;;10.60;95.34;102421.28;4960957;28;20078;-73
2022/11/12 08:50:30;;;;;;;38.10;25.10;;;;;;;9.32;95.61;102231.66;4953419;28;20078;-76
2022/11/12 08:53:00;;;;;;;34.88;27.05;;;;;;;9.85;95.08;102275.41;4964068;28;20485;-75
2022/11/12 08:55:26;;;;;;;46.20;26.48;;;;;;;10.55;95.08;102386.13;4961844;28;20054;-76
2022/11/12 08:57:52;;;;;;;35.13;24.45;;;;;;;9.77;93.88;102269.03;4959896;28;20769;-75
2022/11/12 09:00:17;;;;;;;32.35;24.60;;;;;;;9.91;92.78;102282.59;4963079;28;20042;-75
2022/11/12 09:02:43;;;;;;;33.50;24.25;;;;;;;10.44;93.26;102387.50;4958349;28;20179;-75
2022/11/12 09:05:08;;;;;;;33.20;25.15;;;;;;;10.52;93.09;102372.91;4965830;28;20534;-75
2022/11/12 09:07:34;;;;;;;31.60;22.95;;;;;;;10.77;92.86;102406.09;4960533;28;20050;-74
2022/11/12 09:10:00;;;;;;;29.27;23.27;;;;;;;10.11;93.06;102273.66;4967568;28;20724;-75
2022/11/12 09:12:26;;;;;;;28.05;22.10;;;;;;;10.67;92.14;102390.88;4960411;28;20039;-73
2022/11/12 09:14:51;;;;;;;33.17;24.95;;;;;;;10.32;91.73;102299.72;4962531;28;20054;-76
2022/11/12 09:17:16;;;;;;;31.15;22.33;;;;;;;11.09;91.10;102399.19;4961640;28;20058;-75
2022/11/12 09:19:42;;;;;;;32.28;22.05;;;;;;;11.01;91.39;102402.44;4960929;28;20086;-74
2022/11/12 09:22:08;;;;;;;34.80;22.15;;;;;;;10.37;89.55;102272.69;4960720;28;20379;-73
2022/11/12 09:24:33;;;;;;;32.53;21.42;;;;;;;10.29;90.51;102285.59;4961676;28;20066;-74
2022/11/12 09:26:59;;;;;;;28.67;21.05;;;;;;;10.41;90.21;102267.59;4954334;28;20485;-73
2022/11/12 09:29:24;;;;;;;34.47;23.58;;;;;;;11.06;92.01;102385.06;4970014;28;20574;-73
2022/11/12 09:31:50;;;;;;;31.83;22.15;;;;;;;10.56;91.33;102277.69;4968568;28;20054;-75
2022/11/12 09:34:15;;;;;;;30.08;21.88;;;;;;;11.38;90.76;102386.91;4963110;28;20058;-73
2022/11/12 09:36:41;;;;;;;28.67;21.60;;;;;;;11.09;91.37;102349.25;4954985;28;20506;-75
2022/11/12 09:39:06;;;;;;;32.70;24.38;;;;;;;11.34;90.47;102403.44;4949703;28;20054;-76
2022/11/12 09:41:35;;;;;;;30.52;21.20;;;;;;;10.56;90.94;102256.69;4966237;28;20042;-75
2022/11/12 09:44:08;;;;;;;27.73;19.50;;;;;;;11.32;90.04;102370.06;4949475;28;20066;-75
2022/11/12 09:46:46;;;;;;;28.67;21.40;;;;;;;11.60;89.82;102388.38;4967857;28;20738;-74
2022/11/12 09:49:27;;;;;;;28.77;19.60;;;;;;;11.78;88.30;102377.50;4966577;28;20464;-74
2022/11/12 09:51:58;;;;;;;29.25;21.40;;;;;;;11.50;87.78;102367.97;4961827;28;20050;-74
2022/11/12 09:54:27;;;;;;;30.42;22.05;;;;;;;11.66;87.08;102398.19;4970592;28;20041;-73
2022/11/12 09:56:53;;;;;;;30.52;20.38;;;;;;;10.96;86.72;102242.06;4967391;28;20085;-74
2022/11/12 09:59:20;;;;;;;32.53;21.95;;;;;;;11.64;86.54;102360.44;4968413;28;20057;-73
2022/11/12 10:02:12;;;;;;;32.95;21.38;;;;;;;11.45;86.05;102348.53;4966252;28;20051;-74
2022/11/12 10:04:52;;;;;;;21.45;16.95;;;;;;;11.82;85.56;102376.72;4969165;28;20061;-77
2022/11/12 10:07:51;;;;;;;23.42;18.75;;;;;;;11.86;83.08;102380.31;4966423;28;20208;-74
2022/11/12 10:10:20;;;;;;;26.70;20.20;;;;;;;11.81;83.25;102377.56;4965411;28;20662;-74
2022/11/12 10:12:48;;;;;;;25.85;18.23;;;;;;;11.77;83.39;102373.06;4972011;28;20447;-74
2022/11/12 10:18:26;;;;;;;27.83;19.55;;;;;;;11.96;82.45;102369.22;4964566;28;20149;-75
2022/11/12 10:20:57;;;;;;;30.27;19.52;;;;;;;11.33;81.63;102224.66;4957245;28;20105;-73
2022/11/12 10:23:40;;;;;;;27.55;19.38;;;;;;;12.13;81.32;102372.28;4967237;28;20185;-74
2022/11/12 10:26:18;;;;;;;28.53;18.73;;;;;;;12.22;80.90;102367.25;4973137;28;20077;-77
2022/11/12 10:29:10;;;;;;;24.30;18.23;;;;;;;12.23;80.21;102358.50;4959076;28;20090;-77
2022/11/12 10:31:35;;;;;;;21.58;16.20;;;;;;;11.47;79.16;102231.19;4958754;28;20055;-76
2022/11/12 10:34:16;;;;;;;25.42;17.20;;;;;;;12.40;78.30;102366.78;4965548;28;20062;-73
2022/11/12 10:36:45;;;;;;;24.75;17.95;;;;;;;12.50;78.81;102364.38;4965341;28;20117;-74
2022/11/12 10:39:41;;;;;;;27.50;19.13;;;;;;;11.89;77.70;102224.31;4967263;28;20494;-74
2022/11/12 10:42:10;;;;;;;18.77;14.98;;;;;;;12.51;75.65;102321.41;4950280;28;20065;-74
2022/11/12 10:44:37;;;;;;;17.17;13.65;;;;;;;11.75;74.84;102226.59;4968464;28;20563;-72
2022/11/12 10:47:29;;;;;;;19.25;14.55;;;;;;;12.85;75.10;102366.09;4949575;28;20375;-72
2022/11/12 10:50:14;;;;;;;18.50;13.88;;;;;;;12.44;74.43;102280.88;4963890;28;20043;-74
2022/11/12 10:52:59;;;;;;;18.25;13.73;;;;;;;12.49;74.92;102362.63;4968214;28;20038;-74
2022/11/12 10:55:31;;;;;;;21.73;15.93;;;;;;;11.84;75.44;102232.97;4961897;28;20040;-73
2022/11/12 10:58:08;;;;;;;19.55;13.88;;;;;;;12.79;73.47;102362.44;4967531;28;20046;-73
2022/11/12 11:00:34;;;;;;;20.80;13.10;;;;;;;12.86;71.72;102330.97;4966652;28;20050;-72
2022/11/12 11:03:05;;;;;;;17.77;12.93;;;;;;;12.70;72.45;102349.06;4968590;28;20051;-74
2022/11/12 11:05:48;;;;;;;24.42;15.10;;;;;;;12.26;73.24;102236.59;4963652;28;20058;-74
2022/11/12 11:08:30;;;;;;;23.88;14.70;;;;;;;12.52;74.36;102299.47;4964020;28;20043;-73
2022/11/12 11:11:22;;;;;;;32.85;16.42;;;;;;;13.26;73.21;102349.38;4967392;28;20050;-73
2022/11/12 11:13:53;;;;;;;27.55;15.90;;;;;;;12.43;74.20;102215.91;4967145;28;20038;-73
2022/11/12 11:16:28;;;;;;;20.52;13.55;;;;;;;12.85;73.40;102341.47;4966370;28;20423;-75
2022/11/12 11:19:05;;;;;;;24.05;13.88;;;;;;;13.16;71.60;102355.28;4944342;28;20050;-74
2022/11/12 11:21:36;;;;;;;15.45;10.75;;;;;;;12.39;72.60;102212.34;4964702;28;20138;-75
2022/11/12 11:24:21;;;;;;;16.02;12.85;;;;;;;13.38;70.94;102360.19;4947630;28;20081;-76
2022/11/12 11:27:27;;;;;;;21.77;14.45;;;;;;;13.23;71.90;102350.19;4957587;28;20082;-74
2022/11/12 11:30:04;;;;;;;17.23;12.18;;;;;;;12.84;70.93;102352.88;4962270;28;20066;-73
2022/11/12 11:32:51;;;;;;;18.95;10.80;;;;;;;13.19;69.71;102348.34;4962934;28;20055;-74
2022/11/12 11:35:23;;;;;;;14.45;10.85;;;;;;;13.66;67.50;102351.06;4967535;28;20243;-76
2022/11/12 11:38:03;;;;;;;13.98;9.25;;;;;;;13.74;66.53;102356.47;4965290;28;20070;-75